Data for 11/02/2009

Time Sea-Level Adjusted Pressure Absolute Pressure Temperature Relative Humidity Dew Point   
(mb) (inHg) (mb) (inHg) (C) (F) (%) (C) (F)
00:05 1027 30.33 856 25.28 2.7 36.8 45 -8.1 17.4
00:10 1027 30.33 856 25.28 2.6 36.6 45 -8.1 17.5
00:15 1027 30.33 856 25.28 2.5 36.5 46 -8 17.6
00:20 1027 30.33 856 25.28 2.4 36.2 46 -8.1 17.5
00:25 1027 30.33 856 25.28 2.3 36.1 46 -8.1 17.4
00:30 1027 30.33 856 25.28 2.1 35.8 47 -8.2 17.3
00:35 1027 30.33 856 25.28 2 35.7 48 -7.9 17.8
00:40 1027 30.33 856 25.28 1.7 35 50 -7.6 18.3
00:45 1027 30.33 856 25.28 1.3 34.4 51 -7.7 18.2
00:50 1027 30.33 856 25.28 1.2 34.1 51 -7.8 17.9
00:55 1027 30.33 856 25.28 1.1 33.9 51 -7.9 17.8
01:00 1027 30.33 856 25.28 1.2 34.1 52 -7.5 18.5
01:05 1027 30.33 856 25.28 0.9 33.5 55 -7.3 18.8
01:10 1027 30.33 856 25.28 0.8 33.4 53 -7.8 18
01:15 1027 30.33 856 25.28 0.8 33.4 52 -7.9 17.8
01:20 1027 30.33 856 25.28 0.8 33.5 52 -7.9 17.7
01:25 1027 30.33 856 25.28 0.7 33.2 53 -7.9 17.9
01:30 1027 30.33 856 25.28 0.6 33.2 52 -8 17.6
01:35 1027 30.33 856 25.28 0.8 33.4 51 -8.3 17.1
01:40 1027 30.33 856 25.28 0.8 33.5 52 -7.8 17.9
01:45 1027 30.33 856 25.28 0.4 32.7 57 -7.3 18.9
01:50 1027 30.33 856 25.28 -0 32 57 -7.6 18.3
01:55 1027 30.33 856 25.28 -0 32 57 -7.6 18.3
02:00 1027 30.33 856 25.28 0.1 32.2 58 -7.2 19
02:05 1027 30.33 856 25.28 -0.2 31.7 60 -7.1 19.3
02:10 1027 30.33 856 25.28 -0.4 31.3 60 -7.2 19.1
02:15 1027 30.33 856 25.28 -0.5 31.2 58 -7.7 18.2
02:20 1027 30.33 856 25.28 -0.3 31.4 58 -7.5 18.5
02:25 1027 30.33 856 25.28 -0.2 31.6 61 -6.9 19.6
02:30 1027 30.33 856 25.28 -0.6 30.9 63 -6.8 19.8
02:35 1027 30.33 856 25.28 -0.8 30.6 62 -7.2 19.1
02:40 1027 30.33 856 25.28 -0.9 30.4 63 -7.1 19.1
02:45 1027 30.33 856 25.28 -0.7 30.8 62 -7.1 19.2
02:50 1027 30.33 856 25.28 -0.4 31.3 60 -7.2 19.1
01:55 1027 30.33 857 25.31 -0.4 31.3 61 -7 19.4
02:00 1027 30.33 857 25.31 -0.5 31 61 -7.1 19.3
02:05 1027 30.33 856 25.28 -0.6 30.9 63 -6.9 19.6
02:10 1027 30.33 856 25.28 -1 30.2 64 -6.9 19.5
02:15 1027 30.33 856 25.28 -1.1 30 64 -7.1 19.2
02:20 1027 30.33 856 25.28 -1 30.1 63 -7.3 18.9
02:25 1027 30.33 856 25.28 -1 30.3 63 -7.2 19.1
02:30 1027 30.33 856 25.28 -1.1 30 64 -7 19.4
02:35 1027 30.33 857 25.31 -1.2 29.8 65 -7 19.4
02:40 1027 30.33 857 25.31 -1.1 30 65 -6.9 19.6
02:45 1027 30.33 857 25.31 -1.1 30.1 64 -7 19.3
02:50 1027 30.33 857 25.31 -1.2 29.8 65 -6.9 19.5
02:55 1027 30.33 857 25.31 -1.4 29.4 64 -7.4 18.8
03:00 1027 30.33 857 25.31 -1.4 29.4 64 -7.3 18.9
03:05 1027 30.33 857 25.31 -1.4 29.5 64 -7.3 18.9
03:10 1027 30.33 857 25.31 -1.1 29.9 62 -7.5 18.5
03:15 1027 30.33 857 25.31 -1.2 29.8 63 -7.4 18.6
03:20 1027 30.33 857 25.31 -1.5 29.3 65 -7.3 18.8
03:25 1027 30.33 857 25.31 -1.6 29.1 65 -7.3 18.9
03:30 1027 30.33 857 25.31 -1.6 29.2 65 -7.3 18.9
03:35 1027 30.33 856 25.28 -1.6 29 68 -6.8 19.7
03:40 1027 30.33 856 25.28 -2.1 28.2 70 -6.9 19.6
03:45 1027 30.33 856 25.28 -2.3 27.8 70 -7.1 19.3
03:50 1027 30.33 856 25.28 -2.4 27.8 68 -7.4 18.6
03:55 1027 30.33 856 25.28 -2.3 27.9 67 -7.6 18.3
04:00 1027 30.33 856 25.28 -2.1 28.2 66 -7.6 18.3
04:05 1027 30.33 856 25.28 -2 28.4 65 -7.8 18
04:10 1027 30.33 856 25.28 -1.9 28.6 64 -7.7 18.1
04:15 1027 30.33 856 25.28 -1.8 28.7 63 -8 17.7
04:20 1027 30.33 856 25.28 -1.6 29.1 62 -8.1 17.5
04:25 1027 30.33 856 25.28 -1.6 29.2 61 -8 17.5
04:30 1027 30.33 856 25.28 -1.4 29.5 61 -8 17.6
04:35 1027 30.33 856 25.28 -1.4 29.4 61 -8 17.6
04:40 1027 30.33 856 25.28 -1.4 29.5 61 -8 17.6
04:45 1027 30.33 856 25.28 -1.5 29.3 61 -8 17.6
04:50 1027 30.33 856 25.28 -1.5 29.4 61 -8 17.6
04:55 1027 30.33 856 25.28 -1.5 29.4 63 -7.5 18.4
05:00 1027 30.33 856 25.28 -1.5 29.3 63 -7.6 18.2
05:05 1027 30.33 856 25.28 -1.5 29.3 63 -7.7 18.2
05:10 1027 30.33 856 25.28 -1.7 28.9 65 -7.5 18.4
05:15 1027 30.33 856 25.28 -1.9 28.6 65 -7.6 18.4
05:20 1027 30.33 856 25.28 -2 28.3 66 -7.7 18.2
05:25 1027 30.33 856 25.28 -1.7 28.9 65 -7.5 18.5
05:30 1027 30.33 856 25.28 -1.9 28.5 65 -7.6 18.3
05:35 1027 30.33 856 25.28 -2 28.4 65 -7.6 18.2
05:40 1027 30.33 856 25.28 -2.1 28.2 66 -7.6 18.3
05:45 1027 30.33 856 25.28 -2.4 27.7 68 -7.6 18.3
05:50 1027 30.33 856 25.28 -2.7 27.1 67 -8.1 17.5
05:55 1027 30.33 856 25.28 -2.3 27.9 65 -7.9 17.7
06:00 1027 30.33 856 25.28 -2.3 27.9 66 -7.8 18
06:05 1027 30.33 856 25.28 -2.4 27.6 67 -7.7 18.1
06:10 1027 30.33 857 25.31 -2.4 27.7 67 -7.7 18.1
06:15 1027 30.33 857 25.31 -2.4 27.7 67 -7.8 18
06:20 1027 30.33 857 25.31 -2.4 27.6 67 -7.8 18
06:25 1027 30.33 857 25.31 -2.5 27.4 69 -7.5 18.4
06:30 1027 30.33 856 25.28 -2.7 27.1 69 -7.6 18.2
06:35 1027 30.33 856 25.28 -3 26.7 69 -7.8 18
06:40 1027 30.33 856 25.28 -3.2 26.3 70 -7.8 17.9
06:45 1027 30.33 856 25.28 -2.9 26.8 69 -7.8 18
06:50 1027 30.33 856 25.28 -2.9 26.7 69 -7.7 18.1
06:55 1027 30.33 856 25.28 -2.9 26.7 69 -7.9 17.8
07:00 1027 30.33 856 25.28 -3 26.6 70 -7.8 18
07:05 1027 30.33 856 25.28 -3.1 26.4 69 -7.9 17.7
07:10 1027 30.33 856 25.28 -3 26.6 70 -7.7 18.1
07:15 1027 30.33 856 25.28 -3.2 26.2 70 -7.9 17.8
07:20 1027 30.33 856 25.28 -3.1 26.4 71 -7.7 18.2
07:25 1027 30.33 856 25.28 -3.1 26.5 71 -7.6 18.4
07:30 1027 30.33 857 25.31 -3.1 26.4 72 -7.4 18.7
07:35 1027 30.33 857 25.31 -3.1 26.4 71 -7.6 18.3
07:40 1027 30.33 857 25.31 -2.9 26.8 71 -7.4 18.7
07:45 1028 30.36 857 25.31 -3.1 26.5 72 -7.5 18.5
07:50 1028 30.36 857 25.31 -3 26.7 70 -7.6 18.3
07:55 1028 30.36 857 25.31 -2.9 26.8 70 -7.7 18.1
08:00 1028 30.36 857 25.31 -2.9 26.8 69 -7.7 18.1
08:05 1028 30.36 857 25.31 -2.7 27.1 69 -7.7 18.2
08:10 1028 30.36 857 25.31 -2.5 27.6 68 -7.5 18.5
08:15 1028 30.36 857 25.31 -2.3 27.9 68 -7.4 18.7
08:20 1028 30.36 857 25.31 -2 28.3 67 -7.4 18.8
08:25 1028 30.36 857 25.31 -1.7 28.9 66 -7.2 19
08:30 1028 30.36 857 25.31 -1.5 29.3 64 -7.3 18.8
08:35 1028 30.36 857 25.31 -1.5 29.2 64 -7.5 18.5
08:40 1028 30.36 857 25.31 -1.2 29.9 62 -7.6 18.3
08:45 1028 30.36 857 25.31 -0.6 30.8 59 -7.6 18.2
08:50 1028 30.36 857 25.31 0.1 32.1 56 -7.7 18.1
08:55 1028 30.36 857 25.31 0.4 32.8 56 -7.4 18.7
09:00 1028 30.36 857 25.31 0.5 32.9 55 -7.6 18.3
09:05 1028 30.36 857 25.31 1 33.8 54 -7.3 18.8
09:10 1028 30.36 857 25.31 1.4 34.6 54 -6.9 19.5
09:15 1028 30.36 857 25.31 1.5 34.6 53 -7.1 19.2
09:20 1028 30.36 857 25.31 2 35.7 50 -7.2 19
09:25 1028 30.36 857 25.31 2.4 36.3 49 -7.1 19.2
09:30 1028 30.36 857 25.31 2.4 36.3 50 -7 19.3
09:35 1028 30.36 857 25.31 2.6 36.7 49 -7.1 19.3
09:40 1028 30.36 857 25.31 2.6 36.7 49 -6.9 19.5
09:45 1028 30.36 857 25.31 2.6 36.7 50 -6.9 19.6
09:50 1028 30.36 857 25.31 2.8 37 47 -7.4 18.8
09:55 1028 30.36 857 25.31 3.5 38.2 45 -7.4 18.6
10:00 1028 30.36 857 25.31 3.5 38.3 44 -7.8 18
10:05 1028 30.36 857 25.31 3.8 38.9 43 -7.6 18.3
10:10 1028 30.36 857 25.31 4 39.2 42 -7.7 18.2
10:15 1028 30.36 857 25.31 4 39.1 45 -6.9 19.7
10:20 1028 30.36 857 25.31 4.1 39.4 48 -6 21.2
10:25 1028 30.36 857 25.31 3.9 39 48 -6.2 20.8
10:30 1027 30.33 857 25.31 4 39.1 46 -6.5 20.2
10:35 1027 30.33 856 25.28 4.2 39.5 45 -6.6 20.1
10:40 1027 30.33 856 25.28 4.2 39.6 45 -6.8 19.7
10:45 1027 30.33 856 25.28 4 39.2 45 -6.9 19.6
10:50 1027 30.33 856 25.28 4.4 39.9 43 -7.2 19.1
10:55 1027 30.33 856 25.28 5 41.1 41 -7.2 19
11:00 1027 30.33 856 25.28 5.6 42.2 39 -7.4 18.8
11:05 1027 30.33 856 25.28 5.6 42 39 -7.3 18.9
11:10 1026 30.3 856 25.28 4.4 39.9 42 -7.3 18.8
11:15 1026 30.3 855 25.25 3.9 39 43 -7.5 18.5
11:20 1026 30.3 855 25.25 4.3 39.8 42 -7.4 18.6
11:25 1026 30.3 855 25.25 5.5 41.9 39 -7.5 18.4
11:30 1026 30.3 855 25.25 5.9 42.6 38 -7.3 18.9
11:35 1026 30.3 855 25.25 5.7 42.3 36 -8 17.5
11:40 1026 30.3 855 25.25 5.6 42 40 -6.8 19.7
11:45 1026 30.3 855 25.25 5.8 42.4 38 -7.5 18.5
11:50 1026 30.3 855 25.25 6.6 43.8 38 -6.8 19.8
11:55 1026 30.3 855 25.25 6.6 44 37 -7 19.4
12:00 1026 30.3 855 25.25 7 44.6 36 -7.1 19.3
12:05 1026 30.3 855 25.25 7 44.7 38 -6.5 20.3
12:10 1026 30.3 855 25.25 6.1 43 39 -6.7 20
12:15 1026 30.3 855 25.25 7.1 44.8 37 -6.7 19.9
12:20 1026 30.3 855 25.25 7.7 45.9 35 -6.6 20.1
12:25 1025 30.27 855 25.25 7.5 45.4 36 -6.8 19.8
12:30 1025 30.27 854 25.22 6.1 43 40 -6.5 20.3
12:35 1025 30.27 854 25.22 6.1 42.9 37 -7.5 18.5
12:40 1025 30.27 854 25.22 7.2 45 36 -6.9 19.6
12:45 1025 30.27 854 25.22 7.3 45.2 36 -6.7 19.9
12:50 1025 30.27 854 25.22 7 44.6 36 -7.1 19.2
12:55 1025 30.27 854 25.22 7.7 45.9 33 -7.4 18.6
13:00 1025 30.27 854 25.22 8.1 46.6 33 -7 19.4
13:05 1025 30.27 854 25.22 7.9 46.2 34 -7.1 19.2
13:10 1025 30.27 854 25.22 7.7 45.9 34 -7.3 18.9
13:15 1025 30.27 854 25.22 7.5 45.6 34 -7.2 19.1
13:20 1025 30.27 854 25.22 7.9 46.1 34 -7.1 19.2
13:25 1025 30.27 854 25.22 8.4 47.1 32 -7.3 18.8
13:30 1025 30.27 854 25.22 8.3 46.9 33 -7.2 19
13:35 1025 30.27 854 25.22 7.9 46.2 34 -7.1 19.3
13:40 1025 30.27 854 25.22 8.5 47.4 32 -7.3 18.9
13:45 1025 30.27 854 25.22 8.9 47.9 32 -7.1 19.3
13:50 1025 30.27 854 25.22 9.1 48.4 31 -7 19.5
13:55 1024 30.24 854 25.22 9 48.2 31 -7.1 19.1
14:00 1024 30.24 854 25.22 8.5 47.3 33 -7 19.5
14:05 1024 30.24 853 25.19 8 46.5 33 -7.3 18.8
14:10 1024 30.24 853 25.19 8.1 46.5 31 -8.1 17.5
14:15 1024 30.24 853 25.19 8.7 47.7 32 -7.2 19.1
14:20 1024 30.24 853 25.19 8.5 47.4 33 -6.9 19.5
14:25 1024 30.24 853 25.19 8.4 47.1 32 -7.3 18.8
14:30 1024 30.24 853 25.19 8.3 46.9 33 -7.1 19.2
14:35 1024 30.24 853 25.19 8.7 47.6 31 -7.4 18.8
14:40 1024 30.24 853 25.19 7.7 45.9 34 -7 19.4
14:45 1024 30.24 853 25.19 7.6 45.7 32 -7.8 17.9
14:50 1024 30.24 853 25.19 7.5 45.4 34 -7.5 18.4
14:55 1023 30.21 853 25.19 7.6 45.7 33 -7.7 18.1
15:00 1023 30.21 853 25.19 7.6 45.7 33 -7.6 18.3
15:05 1023 30.21 852 25.16 7.6 45.7 33 -7.8 18
15:10 1023 30.21 852 25.16 7.4 45.3 34 -7.6 18.3
15:15 1023 30.21 852 25.16 7 44.6 32 -8.4 16.9
15:20 1023 30.21 852 25.16 7.1 44.9 31 -8.7 16.3
15:25 1023 30.21 852 25.16 7 44.5 32 -8.5 16.7
15:30 1023 30.21 852 25.16 7.1 44.7 33 -8 17.5
15:35 1023 30.21 852 25.16 7.5 45.4 33 -7.9 17.7
15:40 1023 30.21 852 25.16 8.2 46.8 31 -7.8 18
15:45 1022 30.18 852 25.16 9 48.1 30 -7.5 18.5
15:50 1022 30.18 852 25.16 8.5 47.2 32 -7.4 18.6
15:55 1022 30.18 852 25.16 8 46.3 33 -7.5 18.5
16:00 1022 30.18 852 25.16 7.8 46 34 -7 19.4
16:05 1022 30.18 851 25.13 7.6 45.6 35 -7 19.4
16:10 1022 30.18 851 25.13 7.3 45.1 35 -7.1 19.3
16:15 1022 30.18 851 25.13 7.2 45 36 -7 19.4
16:20 1022 30.18 851 25.13 7.3 45.1 37 -6.6 20.2
16:25 1022 30.18 851 25.13 7.1 44.8 36 -6.8 19.7
16:30 1022 30.18 851 25.13 7.1 44.8 36 -6.8 19.7
16:35 1022 30.18 851 25.13 7 44.6 36 -6.9 19.6
16:40 1022 30.18 851 25.13 6.8 44.3 37 -7 19.3
16:45 1022 30.18 851 25.13 7 44.5 36 -7.1 19.2
16:50 1021 30.15 851 25.13 7 44.5 37 -6.9 19.6
16:55 1022 30.18 851 25.13 6.9 44.3 37 -6.9 19.6
17:00 1022 30.18 851 25.13 6.7 44.1 37 -7 19.4
17:05 1022 30.18 851 25.13 6.9 44.4 38 -6.6 20.1
17:10 1022 30.18 851 25.13 7 44.6 38 -6.3 20.6
17:15 1021 30.15 851 25.13 6.8 44.2 39 -6.3 20.7
17:20 1021 30.15 851 25.13 6.6 43.8 40 -6.2 20.8
17:25 1021 30.15 851 25.13 6.3 43.3 40 -6.4 20.4
17:30 1021 30.15 850 25.1 5.9 42.7 42 -6 21.2
17:35 1021 30.15 850 25.1 5.5 41.9 49 -4.4 24.1
17:40 1021 30.15 850 25.1 4.9 40.8 52 -4.1 24.7
17:45 1021 30.15 850 25.1 4.6 40.2 56 -3.5 25.7
17:50 1021 30.15 850 25.1 4.4 39.8 56 -3.7 25.3
17:55 1021 30.15 850 25.1 4.2 39.6 56 -3.7 25.4
18:00 1021 30.15 850 25.1 4.1 39.3 57 -3.7 25.4
18:05 1021 30.15 850 25.1 3.9 39 56 -4 24.7
18:10 1021 30.15 850 25.1 3.8 38.8 56 -4.3 24.3
18:15 1021 30.15 850 25.1 4.1 39.4 52 -4.9 23.2
18:20 1021 30.15 850 25.1 4.2 39.6 53 -4.6 23.7
18:25 1021 30.15 850 25.1 4.1 39.4 52 -4.8 23.4
18:30 1021 30.15 850 25.1 4 39.3 51 -5.2 22.6
18:35 1021 30.15 850 25.1 4 39.2 50 -5.4 22.2
18:40 1021 30.15 850 25.1 4 39.2 50 -5.4 22.2
18:45 1021 30.15 850 25.1 3.8 38.8 52 -5.2 22.7
18:50 1021 30.15 850 25.1 3.4 38.1 53 -5.2 22.6
18:55 1021 30.15 850 25.1 3.2 37.7 54 -5.3 22.4
19:00 1021 30.15 850 25.1 3.2 37.8 52 -5.8 21.6
19:05 1021 30.15 850 25.1 3.2 37.8 54 -5.3 22.4
19:10 1021 30.15 850 25.1 3.1 37.5 54 -5.4 22.4
19:15 1021 30.15 850 25.1 3.2 37.8 51 -6 21.1
19:20 1021 30.15 850 25.1 3.5 38.2 50 -6.1 21.1
19:25 1021 30.15 850 25.1 3.5 38.3 52 -5.5 22.1
19:30 1021 30.15 850 25.1 3.4 38.1 52 -5.7 21.8
19:35 1021 30.15 850 25.1 3.4 38 52 -5.5 22
19:40 1021 30.15 850 25.1 3.2 37.7 52 -5.7 21.7
19:45 1021 30.15 850 25.1 3.2 37.8 53 -5.6 22
19:50 1021 30.15 850 25.1 2.8 37 57 -5 23.1
19:55 1021 30.15 850 25.1 2 35.7 59 -5.2 22.6
20:00 1021 30.15 850 25.1 2.1 35.8 55 -6 21.3
20:05 1021 30.15 850 25.1 2.1 35.8 55 -6 21.2
20:10 1021 30.15 850 25.1 2.2 35.9 55 -5.9 21.4
20:15 1021 30.15 850 25.1 2.4 36.3 55 -5.7 21.7
20:20 1021 30.15 850 25.1 2.2 36 56 -5.7 21.7
20:25 1021 30.15 850 25.1 1.9 35.3 58 -5.5 22
20:30 1021 30.15 850 25.1 1.6 34.9 57 -5.9 21.3
20:35 1021 30.15 850 25.1 1.5 34.6 56 -6.3 20.7
20:40 1021 30.15 850 25.1 1.5 34.7 56 -6.3 20.6
20:45 1021 30.15 850 25.1 1.7 35 53 -6.9 19.6
20:50 1021 30.15 850 25.1 2.3 36.2 49 -7.4 18.7
20:55 1021 30.15 850 25.1 2.6 36.6 50 -6.7 19.9
21:00 1021 30.15 850 25.1 2.1 35.8 49 -7.6 18.3
21:05 1021 30.15 850 25.1 2.3 36.1 51 -6.7 19.9
21:10 1021 30.15 850 25.1 1.8 35.3 51 -7.1 19.2
21:15 1021 30.15 850 25.1 1.8 35.3 53 -6.9 19.6
21:20 1021 30.15 850 25.1 1.8 35.2 52 -7.1 19.2
21:25 1021 30.15 850 25.1 1.8 35.3 51 -7.2 19.1
21:30 1021 30.15 850 25.1 1.8 35.3 53 -6.9 19.6
21:35 1021 30.15 850 25.1 1.7 35.1 53 -7 19.4
21:40 1021 30.15 850 25.1 1.5 34.7 57 -6.2 20.8
21:45 1021 30.15 850 25.1 0.9 33.6 58 -6.3 20.6
21:50 1021 30.15 850 25.1 0.8 33.5 59 -6.3 20.7
21:55 1021 30.15 850 25.1 1.2 34.2 54 -7 19.3
22:00 1021 30.15 850 25.1 1.6 34.9 54 -6.8 19.7
22:05 1021 30.15 850 25.1 1.6 34.9 56 -6.2 20.8
22:10 1021 30.15 851 25.13 1.4 34.4 58 -6 21.3
22:15 1021 30.15 851 25.13 1.8 35.3 56 -6.1 20.9
22:20 1021 30.15 851 25.13 1.9 35.4 52 -6.9 19.6
22:25 1021 30.15 851 25.13 2.4 36.3 52 -6.6 20.1
22:30 1021 30.15 851 25.13 2.6 36.8 51 -6.4 20.5
22:35 1021 30.15 851 25.13 2.8 37 52 -6.2 20.9
22:40 1021 30.15 851 25.13 3 37.5 51 -6.2 20.8
22:45 1021 30.15 851 25.13 3.7 38.7 46 -6.9 19.5
22:50 1021 30.15 851 25.13 4.2 39.5 46 -6.4 20.6
22:55 1021 30.15 851 25.13 3.8 38.8 50 -5.8 21.5
23:00 1021 30.15 851 25.13 3.6 38.4 44 -7.4 18.6
23:05 1021 30.15 851 25.13 3.9 39 49 -5.9 21.4
23:10 1021 30.15 851 25.13 3.7 38.6 48 -6.2 20.8
23:15 1021 30.15 851 25.13 3.9 39 48 -6.2 20.8
23:20 1022 30.18 851 25.13 3.6 38.6 49 -6.2 20.9
23:25 1022 30.18 851 25.13 4 39.2 45 -6.8 19.8
23:30 1022 30.18 851 25.13 4.3 39.7 46 -6.3 20.6
23:35 1022 30.18 851 25.13 4.3 39.7 45 -6.6 20.2
23:40 1022 30.18 851 25.13 4.3 39.8 48 -5.8 21.6
23:45 1022 30.18 851 25.13 4 39.2 50 -5.5 22
23:50 1022 30.18 851 25.13 3.7 38.7 52 -5.2 22.6
23:55 1022 30.18 851 25.13 3.6 38.4 50 -5.8 21.5
24:00 1022 30.18 851 25.13 3.8 38.9 52 -5.1 22.8